Portada
Imágenes satélite Pronóstico 10 díasClimaPredicción Marítima Ciclones Rayo AeropuertosFAQ Noticias Acerca
El tiempo : Europa África América del Norte América del Sur Asia Australia-Oceanía Otros
Idiomas Contacto

Humberside, Inglaterra

latitud: 53-35N, longitud: 000-21W, altitud: 31 m


METAR: EGNJ 031220Z 25020KT 9999 VCSH FEW015 SCT030 08/M03 Q1010
TAF: EGNJ 031103Z 0312/0321 24012KT 9999 SCT035 TEMPO 0312/0318 25017G27KT

Hora: 12:38 (12:38 UTC)

Observación

El informe se hizo hace 18 minutos, a las 12:20 UTC
Viento 20 kt del oeste-suroeste
Temperatura 8°C
Humedad 46%
Presión 1010 hPa
Visibilidad 10 km o más
Escasas nubes a una altura de 1500 ft
Nubes dispersas a una altura de 3000 ft
chaparrones en las proximidades

Cambiar las unidades

Pronóstico

El informe se hizo hace 1 hora y 35 minutos, a las 11:03 UTC
Pronóstico válido del 03 a las 12 UTC al 03 a las 21 UTC
Viento 12 kt del oeste-suroeste
Visibilidad 10 km o más
Nubes dispersas a una altura de 3500 ft
Temporalmente
del 03 a las 12 UTC al 03 a las 18 UTC
Viento 17 kt del oeste-suroeste con ráfagas de 27 kt
La información que se ofrece en estas páginas está sujeta a una cláusula de exención de responsabilidad
El tiempo : Europa África América del Norte América del Sur Asia Australia-Oceanía Otros
Imágenes satélite Pronóstico 10 díasClimaPredicción Marítima Ciclones Rayo AeropuertosFAQ Idiomas Contacto Noticias Acerca